createdAt,value
2019-05-22T00:01:56.023Z,94878.59
2019-05-22T00:04:24.802Z,94871.56
2019-05-22T00:06:54.212Z,94871.54
2019-05-22T00:09:22.843Z,94868.28
2019-05-22T00:11:51.545Z,94863.94
2019-05-22T00:14:19.239Z,94863.09
2019-05-22T00:16:47.331Z,94871.69
2019-05-22T00:19:14.704Z,94872.77
2019-05-22T00:21:44.911Z,94876.79
2019-05-22T00:24:12.305Z,94869.52
2019-05-22T00:26:41.377Z,94870.55
2019-05-22T00:29:10.022Z,94872.97
2019-05-22T00:31:37.738Z,94865.88
2019-05-22T00:34:05.672Z,94863.60
2019-05-22T00:36:32.533Z,94864.37
2019-05-22T00:39:00.190Z,94847.77
2019-05-22T00:41:30.900Z,94846.41
2019-05-22T00:43:57.599Z,94843.58
2019-05-22T00:46:25.490Z,94843.51
2019-05-22T00:48:54.071Z,94841.88
2019-05-22T00:51:28.395Z,94836.94
2019-05-22T00:54:00.160Z,94834.45
2019-05-22T00:56:33.149Z,94830.12
2019-05-22T00:59:02.269Z,94833.60
2019-05-22T01:01:31.782Z,94824.34
2019-05-22T01:03:58.563Z,94831.91
2019-05-22T01:06:26.769Z,94830.23
2019-05-22T01:08:55.890Z,94830.75
2019-05-22T01:11:24.554Z,94826.45
2019-05-22T01:13:51.519Z,94830.94
2019-05-22T01:16:18.968Z,94833.89
2019-05-22T01:18:46.388Z,94841.16
2019-05-22T01:21:17.188Z,94840.84
2019-05-22T01:23:45.501Z,94852.48
2019-05-22T01:26:16.527Z,94851.59
2019-05-22T01:28:43.983Z,94851.59
2019-05-22T01:31:13.222Z,94842.30
2019-05-22T01:33:48.012Z,94848.23
2019-05-22T01:36:20.337Z,94841.70
2019-05-22T01:38:47.042Z,94839.48
2019-05-22T01:41:33.201Z,94845.42
2019-05-22T01:44:02.493Z,94837.52
2019-05-22T01:46:30.411Z,94837.44
2019-05-22T01:49:00.861Z,94840.02
2019-05-22T01:51:27.638Z,94841.05
2019-05-22T01:53:55.381Z,94847.27
2019-05-22T01:56:24.017Z,94851.02
2019-05-22T01:58:51.464Z,94850.30
2019-05-22T02:01:21.702Z,94850.67
2019-05-22T02:03:50.299Z,94847.13
2019-05-22T10:15:09.692Z,94851.22
2019-05-22T10:17:39.147Z,94859.75
2019-05-22T10:20:06.990Z,94855.59
2019-05-22T10:22:35.278Z,94859.82
2019-05-22T10:25:14.919Z,94849.08
2019-05-22T10:27:33.856Z,94853.27
2019-05-22T10:30:02.943Z,94851.99
2019-05-22T10:32:32.025Z,94851.45
2019-05-22T10:34:59.542Z,94855.53
2019-05-22T10:37:27.480Z,94853.20
2019-05-22T10:39:54.626Z,94862.13
2019-05-22T10:42:22.445Z,94875.96
2019-05-22T10:44:49.283Z,94868.73
2019-05-22T10:47:18.644Z,94860.44
2019-05-22T10:49:45.345Z,94859.84
2019-05-22T10:52:12.278Z,94854.03
2019-05-22T10:54:39.040Z,94858.61
2019-05-22T10:57:05.867Z,94868.98
2019-05-22T10:59:32.588Z,94864.42
2019-05-22T11:01:59.273Z,94857.89
2019-05-22T11:04:26.979Z,94865.81
2019-05-22T11:06:55.422Z,94862.78
2019-05-22T11:09:22.598Z,94850.81
2019-05-22T11:11:49.580Z,94860.00
2019-05-22T11:14:16.367Z,94852.45
2019-05-22T11:16:44.199Z,94861.25
2019-05-22T11:19:10.889Z,94858.49
2019-05-22T11:21:38.898Z,94851.99
2019-05-22T11:24:05.997Z,94856.70
2019-05-22T11:26:32.854Z,94856.24
2019-05-22T11:29:02.279Z,94851.53
2019-05-22T11:31:29.168Z,94841.97
2019-05-22T11:33:56.253Z,94839.13
2019-05-22T11:36:23.340Z,94833.78
2019-05-22T11:38:50.231Z,94836.10
2019-05-22T11:41:17.938Z,94837.64
2019-05-22T11:43:45.327Z,94836.51
2019-05-22T11:46:12.492Z,94840.13
2019-05-22T11:48:39.272Z,94832.84
2019-05-22T11:51:06.401Z,94837.93
2019-05-22T11:53:34.506Z,94829.33
2019-05-22T11:56:01.417Z,94828.73
2019-05-22T11:58:28.474Z,94820.39
2019-05-22T12:00:55.183Z,94817.94
2019-05-22T12:03:22.325Z,94828.22
2019-05-22T12:05:50.178Z,94824.45
2019-05-22T12:08:17.395Z,94819.85
2019-05-22T12:10:44.592Z,94815.25
2019-05-22T12:13:12.310Z,94816.98
2019-05-22T12:15:40.157Z,94810.91
2019-05-22T12:18:07.093Z,94817.94
2019-05-22T12:20:34.578Z,94818.34
2019-05-22T12:23:01.777Z,94827.50
2019-05-22T12:25:28.771Z,94819.05
2019-05-22T12:27:56.305Z,94815.09
2019-05-22T12:30:23.740Z,94811.88
2019-05-22T12:32:51.649Z,94809.12
2019-05-22T12:35:20.405Z,94811.66
2019-05-22T12:37:47.372Z,94815.17
2019-05-22T12:40:18.691Z,94806.59
2019-05-22T12:42:46.523Z,94798.73
2019-05-22T12:45:14.753Z,94800.88
2019-05-22T12:47:42.794Z,94804.63
2019-05-22T12:50:16.534Z,94814.17
2019-05-22T12:52:47.378Z,94810.47
2019-05-22T12:55:15.274Z,94815.96
2019-05-22T12:57:42.182Z,94815.22
2019-05-22T13:00:09.753Z,94810.23
2019-05-22T13:02:37.196Z,94811.05
2019-05-22T13:05:06.880Z,94812.44
2019-05-22T13:07:33.594Z,94807.09
2019-05-22T13:10:00.862Z,94809.75
2019-05-22T13:12:28.297Z,94806.09
2019-05-22T13:15:09.201Z,94808.89
2019-05-22T13:17:26.377Z,94804.03
2019-05-22T13:19:54.493Z,94793.55
2019-05-22T13:22:26.021Z,94791.89
2019-05-22T13:24:54.178Z,94797.66
2019-05-22T13:27:21.180Z,94806.77
2019-05-22T13:29:49.643Z,94799.03
2019-05-22T13:32:18.169Z,94805.09
2019-05-22T13:34:45.018Z,94796.20
2019-05-22T13:37:13.127Z,94795.12
2019-05-22T13:39:40.117Z,94798.73
2019-05-22T13:42:07.697Z,94797.55
2019-05-22T13:44:34.601Z,94803.73
2019-05-22T13:47:01.944Z,94798.94
2019-05-22T13:49:30.681Z,94791.92
2019-05-22T13:51:58.639Z,94785.38
2019-05-22T13:54:27.858Z,94791.45
2019-05-22T13:56:55.171Z,94789.44
2019-05-22T13:59:22.470Z,94789.13
2019-05-22T14:01:49.540Z,94786.00
2019-05-22T14:04:16.680Z,94784.60
2019-05-22T14:06:43.595Z,94785.13
2019-05-22T14:09:13.996Z,94784.70
2019-05-22T14:11:40.860Z,94788.33
2019-05-22T14:14:07.887Z,94782.63
2019-05-22T14:16:48.090Z,94787.02
2019-05-22T14:19:05.143Z,94777.27
2019-05-22T14:21:32.210Z,94780.23
2019-05-22T14:23:58.962Z,94781.89
2019-05-22T14:26:29.576Z,94784.13
2019-05-22T14:28:55.028Z,94780.13
2019-05-22T14:31:22.102Z,94781.09
2019-05-22T14:33:49.731Z,94784.03
2019-05-22T14:36:17.171Z,94783.10
2019-05-22T14:38:44.789Z,94785.50
2019-05-22T14:41:12.391Z,94776.22
2019-05-22T14:43:39.621Z,94774.14
2019-05-22T14:46:06.695Z,94777.33
2019-05-22T14:48:34.127Z,94775.19
2019-05-22T14:51:01.183Z,94774.23
2019-05-22T14:53:28.566Z,94768.33
2019-05-22T14:55:56.300Z,94760.73
2019-05-22T14:58:24.428Z,94762.94
2019-05-22T15:00:52.041Z,94757.92
2019-05-22T15:03:19.406Z,94759.63
2019-05-22T15:05:46.721Z,94752.62
2019-05-22T15:08:13.629Z,94748.89
2019-05-22T15:10:40.969Z,94743.53
2019-05-22T15:13:08.459Z,94743.90
2019-05-22T15:15:39.943Z,94741.89
2019-05-22T15:18:05.225Z,94735.13
2019-05-22T15:20:36.727Z,94735.36
2019-05-22T15:23:05.441Z,94735.36
2019-05-22T15:25:32.542Z,94727.15
2019-05-22T15:27:59.830Z,94733.07
2019-05-22T15:30:27.239Z,94721.80
2019-05-22T15:32:56.037Z,94721.91
2019-05-22T15:35:22.924Z,94716.62
2019-05-22T15:37:50.445Z,94712.68
2019-05-22T15:40:17.946Z,94708.73
2019-05-22T15:42:45.675Z,94711.03
2019-05-22T15:45:17.146Z,94714.62
2019-05-22T15:47:54.801Z,94715.02
2019-05-22T15:50:17.172Z,94715.92
2019-05-22T15:52:48.026Z,94710.52
2019-05-22T15:55:15.738Z,94713.31
2019-05-22T15:57:43.445Z,94716.03
2019-05-22T16:00:15.661Z,94713.83
2019-05-22T16:02:43.415Z,94712.25
2019-05-22T16:05:12.107Z,94709.77
2019-05-22T16:07:39.479Z,94703.17
2019-05-22T16:10:08.098Z,94695.25
2019-05-22T16:12:35.472Z,94702.83
2019-05-22T16:15:06.367Z,94702.94
2019-05-22T16:17:35.831Z,94704.60
2019-05-22T16:20:04.671Z,94709.52
2019-05-22T16:22:32.043Z,94710.75
2019-05-22T16:25:00.087Z,94710.94
2019-05-22T16:27:27.110Z,94715.94
2019-05-22T16:29:54.223Z,94712.70
2019-05-22T16:32:22.635Z,94710.45
2019-05-22T16:34:50.133Z,94709.30
2019-05-22T16:37:17.297Z,94701.23
2019-05-22T16:39:45.332Z,94714.19
2019-05-22T16:42:12.062Z,94706.37
2019-05-22T16:44:39.442Z,94701.55
2019-05-22T16:47:09.068Z,94705.64
2019-05-22T16:49:37.421Z,94695.07
2019-05-22T16:52:06.540Z,94700.30
2019-05-22T16:54:33.995Z,94702.55
2019-05-22T16:57:01.593Z,94700.09
2019-05-22T16:59:28.727Z,94693.59
2019-05-22T17:01:59.249Z,94694.34
2019-05-22T17:04:25.051Z,94684.98
2019-05-22T17:06:53.195Z,94695.20
2019-05-22T17:09:20.761Z,94689.78
2019-05-22T17:11:48.230Z,94687.63
2019-05-22T17:14:15.151Z,94688.02
2019-05-22T17:16:42.800Z,94693.45
2019-05-22T17:19:25.838Z,94705.19
2019-05-22T17:21:40.776Z,94703.97
2019-05-22T17:24:10.304Z,94714.02
2019-05-22T17:26:37.275Z,94706.52
2019-05-22T17:29:05.122Z,94717.47
2019-05-22T17:31:32.372Z,94718.52
2019-05-22T17:33:59.527Z,94723.14
2019-05-22T17:36:27.161Z,94718.75
2019-05-22T17:38:55.105Z,94723.66
2019-05-22T17:41:24.369Z,94722.99
2019-05-22T17:43:52.369Z,94723.23
2019-05-22T17:46:19.713Z,94728.88
2019-05-22T17:48:47.070Z,94729.88
2019-05-22T17:51:15.361Z,94738.97
2019-05-22T17:53:43.557Z,94730.20
2019-05-22T17:56:10.773Z,94737.48
2019-05-22T17:58:37.872Z,94735.63
2019-05-22T18:01:06.224Z,94735.25
2019-05-22T18:03:33.308Z,94735.52
2019-05-22T18:06:00.183Z,94740.82
2019-05-22T18:08:28.072Z,94736.34
2019-05-22T18:10:56.148Z,94741.17
2019-05-22T18:13:23.396Z,94744.31
2019-05-22T18:15:50.375Z,94744.72
2019-05-22T18:18:17.298Z,94745.59
2019-05-22T18:20:44.439Z,94743.69
2019-05-22T18:23:11.641Z,94747.97
2019-05-22T18:25:39.093Z,94743.23
2019-05-22T18:28:07.007Z,94735.55
2019-05-22T18:30:35.735Z,94741.30
2019-05-22T18:33:03.347Z,94743.17
2019-05-22T18:35:30.722Z,94734.73
2019-05-22T18:37:57.581Z,94727.88
2019-05-22T18:40:24.599Z,94736.27
2019-05-22T18:42:51.806Z,94744.31
2019-05-22T18:45:20.061Z,94745.82
2019-05-22T18:47:47.496Z,94741.94
2019-05-22T18:50:14.901Z,94748.94
2019-05-22T18:52:48.634Z,94757.13
2019-05-22T18:55:16.520Z,94759.69
2019-05-22T18:57:44.055Z,94756.08
2019-05-22T19:00:11.383Z,94763.87
2019-05-22T19:02:38.429Z,94756.87
2019-05-22T19:05:06.307Z,94758.15
2019-05-22T19:07:34.900Z,94763.13
2019-05-22T19:10:02.832Z,94773.91
2019-05-22T19:12:34.187Z,94777.84
2019-05-22T19:15:01.090Z,94788.05
2019-05-22T19:17:28.344Z,94792.85
2019-05-22T19:19:55.444Z,94805.63
2019-05-22T19:22:22.758Z,94818.08
2019-05-22T19:24:49.513Z,94822.81
2019-05-22T19:27:16.375Z,94833.65
2019-05-22T19:29:44.368Z,94848.34
2019-05-22T19:32:11.217Z,94881.67
2019-05-22T19:34:38.150Z,94906.11
2019-05-22T19:37:05.040Z,94920.44
2019-05-22T19:39:31.745Z,94955.08
2019-05-22T19:42:03.752Z,94973.77
2019-05-22T19:44:27.654Z,94980.95
2019-05-22T19:46:54.623Z,94973.30
2019-05-22T19:49:21.728Z,94956.73
2019-05-22T19:51:48.843Z,94965.99
2019-05-22T19:54:15.964Z,94964.04
2019-05-22T19:56:43.717Z,94972.66
2019-05-22T19:59:11.042Z,94967.61
2019-05-22T20:01:38.166Z,94974.72
2019-05-22T20:04:05.750Z,94967.84
2019-05-22T20:06:33.149Z,94966.16
2019-05-22T20:09:00.060Z,94961.58
2019-05-22T20:11:27.092Z,94953.11
2019-05-22T20:13:53.855Z,94945.09
2019-05-22T20:16:20.582Z,94930.38
2019-05-22T20:18:47.453Z,94912.09
2019-05-22T20:21:14.589Z,94922.63
2019-05-22T20:23:41.702Z,94938.41
2019-05-22T20:26:10.252Z,94940.81
2019-05-22T20:28:37.919Z,94935.16
2019-05-22T20:31:05.103Z,94939.87
2019-05-22T20:33:31.898Z,94942.54
2019-05-22T20:35:59.108Z,94946.00
2019-05-22T20:38:26.100Z,94945.40
2019-05-22T20:40:53.323Z,94929.84
2019-05-22T20:43:20.347Z,94932.63
2019-05-22T20:45:47.394Z,94933.00
2019-05-22T20:48:18.958Z,94925.92
2019-05-22T20:50:45.928Z,94922.53
2019-05-22T20:53:13.942Z,94913.76
2019-05-22T20:55:42.021Z,94902.16
2019-05-22T20:58:10.107Z,94904.75
2019-05-22T21:00:39.837Z,94901.00
2019-05-22T21:03:08.478Z,94909.97
2019-05-22T21:05:35.384Z,94903.16
2019-05-22T21:08:06.728Z,94896.78
2019-05-22T21:10:33.915Z,94887.77
2019-05-22T21:13:02.561Z,94889.37
2019-05-22T21:15:33.147Z,94894.13
2019-05-22T21:18:00.360Z,94897.34
2019-05-22T21:20:29.187Z,94891.20
2019-05-22T21:22:56.548Z,94878.80
2019-05-22T21:25:24.548Z,94887.70
2019-05-22T21:27:51.316Z,94879.19
2019-05-22T21:30:18.714Z,94874.22
2019-05-22T21:32:45.599Z,94872.19
2019-05-22T21:35:12.579Z,94888.46
2019-05-22T21:37:40.707Z,94876.50
2019-05-22T21:40:08.489Z,94870.33
2019-05-22T21:42:37.507Z,94863.69
2019-05-22T21:45:09.167Z,94864.14
2019-05-22T21:47:36.983Z,94861.96
2019-05-22T21:50:09.962Z,94858.98
2019-05-22T21:52:37.162Z,94856.59
2019-05-22T21:55:05.856Z,94853.04
2019-05-22T21:57:33.090Z,94845.70
2019-05-22T21:59:59.922Z,94847.80
2019-05-22T22:02:32.162Z,94846.36
2019-05-22T22:04:59.695Z,94839.44
2019-05-22T22:07:27.256Z,94847.22
2019-05-22T22:09:55.154Z,94838.70
2019-05-22T22:12:22.558Z,94848.11
2019-05-22T22:14:50.882Z,94836.37
2019-05-22T22:17:19.683Z,94838.58
2019-05-22T22:19:48.937Z,94837.75
2019-05-22T22:22:22.311Z,94833.87
2019-05-22T22:24:52.057Z,94836.02
2019-05-22T22:27:19.235Z,94827.05
2019-05-22T22:29:47.148Z,94831.40
2019-05-22T22:32:15.927Z,94826.48
2019-05-22T22:34:45.952Z,94825.78
2019-05-22T22:37:13.879Z,94822.77
2019-05-22T22:39:42.518Z,94816.97
2019-05-22T22:42:11.193Z,94820.02
2019-05-22T22:44:38.120Z,94826.34
2019-05-22T22:47:13.220Z,94823.63
2019-05-22T22:49:41.617Z,94820.46
2019-05-22T22:52:11.612Z,94811.44
2019-05-22T22:54:39.077Z,94810.14
2019-05-22T22:57:08.802Z,94807.84
2019-05-22T22:59:35.792Z,94812.42
2019-05-22T23:02:02.540Z,94811.80
2019-05-22T23:04:29.305Z,94802.72
2019-05-22T23:06:59.831Z,94806.17
2019-05-22T23:09:26.644Z,94803.78
2019-05-22T23:12:01.247Z,94801.84
2019-05-22T23:14:32.408Z,94807.09
2019-05-22T23:17:00.259Z,94813.78
2019-05-22T23:19:37.543Z,94813.48
2019-05-22T23:22:05.145Z,94814.96
2019-05-22T23:24:34.457Z,94819.45
2019-05-22T23:27:01.679Z,94815.52
2019-05-22T23:29:30.963Z,94808.64
2019-05-22T23:31:59.466Z,94808.08
2019-05-22T23:34:26.267Z,94810.34
2019-05-22T23:36:53.384Z,94798.73
2019-05-22T23:39:20.970Z,94798.17
2019-05-22T23:41:48.400Z,94793.63
2019-05-22T23:44:18.418Z,94794.16
2019-05-22T23:46:45.785Z,94791.66
2019-05-22T23:49:13.025Z,94791.05
2019-05-22T23:51:40.008Z,94804.84
2019-05-22T23:54:08.493Z,94811.93
2019-05-22T23:56:36.110Z,94815.20
2019-05-22T23:59:03.383Z,94818.44
